METAR Data
IDs: Format: Raw Decoded Include TAF

Data at: 2053 UTC 25 Oct 2021

LEVT 252030Z VRB02KT 9999 SCT045 09/07 Q1025